createdAt,value
2017-12-15T00:00:55.640Z,3.83
2017-12-15T00:02:21.791Z,3.84
2017-12-15T00:03:48.942Z,3.83
2017-12-15T00:05:17.058Z,3.83
2017-12-15T00:06:43.208Z,3.83
2017-12-15T00:08:10.267Z,3.83
2017-12-15T00:09:37.385Z,3.84
2017-12-15T00:11:04.763Z,3.85
2017-12-15T00:12:32.104Z,3.85
2017-12-15T00:13:59.073Z,3.85
2017-12-15T00:15:26.267Z,3.86
2017-12-15T00:16:53.299Z,3.86
2017-12-15T00:18:21.530Z,3.86
2017-12-15T00:19:48.946Z,3.87
2017-12-15T00:21:16.119Z,3.87
2017-12-15T00:22:42.448Z,3.87
2017-12-15T00:24:09.673Z,3.87
2017-12-15T00:25:36.716Z,3.88
2017-12-15T00:27:05.079Z,3.89
2017-12-15T00:28:31.233Z,3.90
2017-12-15T00:29:58.504Z,3.91
2017-12-15T00:31:25.825Z,3.92
2017-12-15T00:32:53.071Z,3.93
2017-12-15T00:34:20.236Z,3.94
2017-12-15T00:35:48.477Z,3.93
2017-12-15T00:37:15.740Z,3.94
2017-12-15T00:38:43.277Z,3.94
2017-12-15T00:40:09.305Z,3.95
2017-12-15T00:41:36.425Z,3.96
2017-12-15T00:43:03.597Z,3.97
2017-12-15T00:44:31.863Z,3.98
2017-12-15T00:45:59.113Z,3.98
2017-12-15T00:47:26.436Z,3.99
2017-12-15T00:48:52.596Z,4.00
2017-12-15T00:50:19.726Z,4.01
2017-12-15T00:51:46.927Z,4.02
2017-12-15T00:53:14.059Z,4.03
2017-12-15T00:54:42.393Z,4.03
2017-12-15T00:56:08.558Z,4.04
2017-12-15T00:57:35.743Z,4.04
2017-12-15T00:59:03.960Z,4.05
2017-12-15T01:00:30.243Z,4.07
2017-12-15T01:01:57.710Z,4.07
2017-12-15T01:03:24.927Z,4.07
2017-12-15T01:04:53.081Z,4.08
2017-12-15T01:06:19.913Z,4.08
2017-12-15T01:07:47.179Z,4.09
2017-12-15T01:09:13.473Z,4.09
2017-12-15T01:10:41.758Z,4.09
2017-12-15T01:12:07.882Z,4.08
2017-12-15T01:13:35.189Z,4.09
2017-12-15T01:15:03.609Z,4.07
2017-12-15T01:16:30.832Z,4.07
2017-12-15T01:17:57.075Z,4.08
2017-12-15T01:19:24.223Z,4.08
2017-12-15T01:20:51.383Z,4.08
2017-12-15T01:22:18.693Z,4.09
2017-12-15T01:23:47.003Z,4.09
2017-12-15T01:25:13.281Z,4.09
2017-12-15T01:26:41.367Z,4.09
2017-12-15T01:28:08.531Z,4.10
2017-12-15T01:29:35.814Z,4.10
2017-12-15T01:31:02.086Z,4.10
2017-12-15T01:32:29.305Z,4.10
2017-12-15T01:33:57.376Z,4.10
2017-12-15T01:35:24.704Z,4.10
2017-12-15T01:36:52.031Z,4.11
2017-12-15T01:38:19.399Z,4.11
2017-12-15T01:39:45.624Z,4.11
2017-12-15T01:41:13.814Z,4.11
2017-12-15T01:42:40.986Z,4.12
2017-12-15T01:44:07.090Z,4.12
2017-12-15T01:45:34.312Z,4.12
2017-12-15T01:47:02.660Z,4.12
2017-12-15T01:48:28.821Z,4.11
2017-12-15T01:49:56.184Z,4.11
2017-12-15T01:51:24.440Z,4.12
2017-12-15T01:52:51.667Z,4.12
2017-12-15T01:54:17.869Z,4.12
2017-12-15T01:55:46.187Z,4.12
2017-12-15T01:57:13.456Z,4.12
2017-12-15T01:58:39.725Z,4.12
2017-12-15T02:00:07.787Z,4.13
2017-12-15T02:01:34.206Z,4.13
2017-12-15T02:03:02.675Z,4.13
2017-12-15T02:04:28.698Z,4.13
2017-12-15T02:05:57.008Z,4.13
2017-12-15T02:07:23.351Z,4.14
2017-12-15T02:08:50.352Z,4.13
2017-12-15T02:10:17.630Z,4.13
2017-12-15T02:11:45.755Z,4.12
2017-12-15T02:13:13.158Z,4.13
2017-12-15T02:14:40.508Z,4.12
2017-12-15T02:16:06.491Z,4.11
2017-12-15T02:17:33.786Z,4.11
2017-12-15T02:19:01.134Z,4.11
2017-12-15T02:20:29.157Z,4.11
2017-12-15T02:21:56.311Z,4.12
2017-12-15T02:23:23.691Z,4.12
2017-12-15T02:24:49.861Z,4.12
2017-12-15T02:26:17.188Z,4.12
2017-12-15T02:27:45.470Z,4.11
2017-12-15T02:29:12.585Z,4.11
2017-12-15T02:30:39.898Z,4.12
2017-12-15T02:32:06.739Z,4.12
2017-12-15T02:33:32.945Z,4.12
2017-12-15T02:35:00.199Z,4.12
2017-12-15T02:36:27.492Z,4.12
2017-12-15T02:37:54.838Z,4.11
2017-12-15T02:39:23.237Z,4.10
2017-12-15T02:40:50.475Z,4.11
2017-12-15T02:42:16.702Z,4.12
2017-12-15T02:43:43.825Z,4.12
2017-12-15T02:45:12.128Z,4.12
2017-12-15T02:46:38.458Z,4.10
2017-12-15T02:48:05.659Z,4.07
2017-12-15T02:49:32.893Z,4.06
2017-12-15T02:51:01.223Z,4.04
2017-12-15T02:52:27.394Z,4.04
2017-12-15T02:53:54.623Z,4.05
2017-12-15T02:55:22.612Z,4.06
2017-12-15T02:56:49.517Z,4.06
2017-12-15T02:58:15.632Z,4.06
2017-12-15T02:59:44.091Z,4.06
2017-12-15T03:01:10.217Z,4.05
2017-12-15T03:02:37.997Z,4.05
2017-12-15T03:04:04.273Z,4.05
2017-12-15T03:05:31.587Z,4.06
2017-12-15T03:06:59.905Z,4.07
2017-12-15T03:08:27.146Z,4.07
2017-12-15T03:09:53.514Z,4.08
2017-12-15T03:11:20.890Z,4.09
2017-12-15T03:12:48.992Z,4.08
2017-12-15T03:14:16.265Z,4.07
2017-12-15T03:15:42.475Z,4.05
2017-12-15T03:17:09.698Z,4.05
2017-12-15T03:18:36.969Z,4.05
2017-12-15T03:20:04.306Z,4.04
2017-12-15T03:21:31.473Z,4.03
2017-12-15T03:22:58.706Z,4.02
2017-12-15T03:24:25.972Z,4.00
2017-12-15T03:25:53.123Z,4.00
2017-12-15T03:27:21.382Z,4.01
2017-12-15T03:28:47.391Z,3.98
2017-12-15T03:30:15.591Z,3.97
2017-12-15T03:31:42.743Z,3.98
2017-12-15T03:33:10.039Z,3.98
2017-12-15T03:34:37.093Z,3.98
2017-12-15T03:36:04.342Z,3.99
2017-12-15T03:37:30.680Z,3.99
2017-12-15T03:38:57.879Z,3.99
2017-12-15T03:40:25.101Z,3.99
2017-12-15T03:41:53.492Z,4.00
2017-12-15T03:43:19.496Z,4.01
2017-12-15T03:44:46.802Z,4.01
2017-12-15T03:46:13.984Z,4.01
2017-12-15T03:47:41.133Z,4.01
2017-12-15T03:49:09.294Z,4.02
2017-12-15T03:50:36.546Z,4.01
2017-12-15T03:52:03.779Z,4.02
2017-12-15T03:53:30.056Z,4.00
2017-12-15T03:54:57.361Z,4.01
2017-12-15T03:56:24.716Z,4.02
2017-12-15T03:57:51.994Z,4.02
2017-12-15T03:59:20.318Z,4.03
2017-12-15T04:00:47.589Z,4.04
2017-12-15T04:02:14.732Z,4.05
2017-12-15T04:03:41.716Z,4.06
2017-12-15T04:05:08.153Z,4.05
2017-12-15T04:06:35.318Z,4.05
2017-12-15T04:08:03.651Z,4.05
2017-12-15T04:09:31.114Z,4.06
2017-12-15T04:10:57.340Z,4.07
2017-12-15T04:12:25.581Z,4.07
2017-12-15T04:13:52.816Z,4.08
2017-12-15T04:15:20.045Z,4.09
2017-12-15T04:16:46.294Z,4.10
2017-12-15T04:18:13.504Z,4.11
2017-12-15T04:19:40.790Z,4.11
2017-12-15T04:21:08.063Z,4.09
2017-12-15T04:22:35.365Z,4.09
2017-12-15T04:24:02.517Z,4.08
2017-12-15T04:25:30.624Z,4.07
2017-12-15T04:26:56.692Z,4.08
2017-12-15T04:28:24.015Z,4.08
2017-12-15T04:29:51.299Z,4.08
2017-12-15T04:31:19.526Z,4.08
2017-12-15T04:32:46.928Z,4.08
2017-12-15T04:34:13.235Z,4.08
2017-12-15T04:35:40.362Z,4.08
2017-12-15T04:37:08.597Z,4.07
2017-12-15T04:38:34.890Z,4.08
2017-12-15T04:40:03.035Z,4.07
2017-12-15T04:41:30.209Z,4.06
2017-12-15T04:42:56.430Z,4.05
2017-12-15T04:44:23.661Z,4.05
2017-12-15T04:45:51.912Z,4.04
2017-12-15T04:47:17.893Z,4.04
2017-12-15T04:48:46.138Z,4.05
2017-12-15T04:50:13.621Z,4.06
2017-12-15T04:51:39.714Z,4.07
2017-12-15T04:53:06.901Z,4.08
2017-12-15T04:54:34.087Z,4.08
2017-12-15T04:56:01.494Z,4.06
2017-12-15T04:57:28.722Z,4.07
2017-12-15T04:58:57.072Z,4.07
2017-12-15T05:00:23.472Z,4.07
2017-12-15T05:01:51.645Z,4.06
2017-12-15T05:03:18.826Z,4.06
2017-12-15T05:04:44.889Z,4.06
2017-12-15T05:06:13.302Z,4.05
2017-12-15T05:07:39.377Z,4.05
2017-12-15T05:09:07.481Z,4.04
2017-12-15T05:10:33.591Z,4.02
2017-12-15T05:12:00.910Z,4.02
2017-12-15T05:13:28.171Z,4.02
2017-12-15T05:14:55.369Z,4.03
2017-12-15T05:16:23.762Z,4.04
2017-12-15T05:17:49.794Z,4.04
2017-12-15T05:19:17.065Z,4.04
2017-12-15T05:20:45.243Z,4.05
2017-12-15T05:22:11.456Z,4.05
2017-12-15T05:23:39.477Z,4.04
2017-12-15T05:25:06.739Z,4.05
2017-12-15T05:26:33.042Z,4.05
2017-12-15T05:28:00.279Z,4.05
2017-12-15T05:29:28.537Z,4.05
2017-12-15T05:30:56.011Z,4.06
2017-12-15T05:32:23.346Z,4.05
2017-12-15T05:33:49.424Z,4.05
2017-12-15T05:35:16.792Z,4.06
2017-12-15T05:36:43.984Z,4.05
2017-12-15T05:38:11.222Z,4.04
2017-12-15T05:39:39.388Z,4.04
2017-12-15T05:41:05.731Z,4.04
2017-12-15T05:42:33.802Z,4.03
2017-12-15T05:44:00.360Z,4.04
2017-12-15T05:45:27.245Z,4.03
2017-12-15T05:46:57.513Z,4.02
2017-12-15T05:48:21.837Z,4.01
2017-12-15T05:49:50.059Z,4.00
2017-12-15T05:51:17.189Z,4.00
2017-12-15T05:52:43.453Z,4.00
2017-12-15T05:54:11.733Z,4.00
2017-12-15T05:55:39.002Z,3.98
2017-12-15T05:57:05.351Z,3.96
2017-12-15T05:58:33.579Z,3.96
2017-12-15T05:59:59.819Z,3.96
2017-12-15T06:01:28.127Z,3.95
2017-12-15T06:02:54.235Z,3.95
2017-12-15T06:04:21.561Z,3.94
2017-12-15T06:05:49.776Z,3.92
2017-12-15T06:07:16.040Z,3.90
2017-12-15T06:08:43.190Z,3.88
2017-12-15T06:10:10.280Z,3.86
2017-12-15T06:11:37.499Z,3.86
2017-12-15T06:13:04.672Z,3.86
2017-12-15T06:14:31.989Z,3.87
2017-12-15T06:15:59.420Z,3.87
2017-12-15T06:17:27.425Z,3.88
2017-12-15T06:18:53.767Z,3.88
2017-12-15T06:20:21.881Z,3.90
2017-12-15T06:21:48.207Z,3.91
2017-12-15T06:23:16.540Z,3.91
2017-12-15T06:24:43.906Z,3.91
2017-12-15T06:26:09.840Z,3.90
2017-12-15T06:27:36.956Z,3.88
2017-12-15T06:29:05.143Z,3.86
2017-12-15T06:30:31.358Z,3.85
2017-12-15T06:31:59.386Z,3.83
2017-12-15T06:33:25.557Z,3.81
2017-12-15T06:34:52.697Z,3.76
2017-12-15T06:36:19.961Z,3.72
2017-12-15T06:37:47.151Z,3.70
2017-12-15T06:39:14.343Z,3.67
2017-12-15T06:40:41.156Z,3.64
2017-12-15T06:42:08.498Z,3.60
2017-12-15T06:43:36.708Z,3.53
2017-12-15T06:45:02.881Z,3.50
2017-12-15T06:46:30.210Z,3.48
2017-12-15T06:47:58.461Z,3.45
2017-12-15T06:49:24.711Z,3.41
2017-12-15T06:50:52.932Z,3.37
2017-12-15T06:52:20.202Z,3.34
2017-12-15T06:53:46.209Z,3.31
2017-12-15T06:55:13.499Z,3.30
2017-12-15T06:56:41.568Z,3.25
2017-12-15T06:58:07.901Z,3.21
2017-12-15T06:59:36.298Z,3.19
2017-12-15T07:01:03.594Z,3.16
2017-12-15T07:02:31.001Z,3.12
2017-12-15T07:03:57.031Z,3.09
2017-12-15T07:05:25.458Z,3.08
2017-12-15T07:06:52.293Z,3.05
2017-12-15T07:08:18.698Z,3.00
2017-12-15T07:09:45.704Z,2.99
2017-12-15T07:11:12.907Z,2.98
2017-12-15T07:12:40.221Z,2.98
2017-12-15T07:14:07.294Z,2.98
2017-12-15T07:15:35.544Z,2.99
2017-12-15T07:17:01.735Z,2.98
2017-12-15T07:18:28.980Z,2.98
2017-12-15T07:19:57.291Z,2.98
2017-12-15T07:21:23.295Z,2.97
2017-12-15T07:22:50.583Z,2.96
2017-12-15T07:24:17.730Z,2.96
2017-12-15T07:25:46.024Z,2.95
2017-12-15T07:27:12.343Z,2.95
2017-12-15T07:28:39.553Z,2.97
2017-12-15T07:30:07.711Z,2.99
2017-12-15T07:31:33.841Z,2.99
2017-12-15T07:33:01.109Z,2.99
2017-12-15T07:34:29.361Z,2.98
2017-12-15T07:35:56.716Z,2.99
2017-12-15T07:37:22.854Z,2.97
2017-12-15T07:38:50.102Z,2.96
2017-12-15T07:40:18.383Z,2.94
2017-12-15T07:41:44.711Z,2.92
2017-12-15T07:43:11.924Z,2.94
2017-12-15T07:44:39.215Z,2.96
2017-12-15T07:46:07.471Z,2.97
2017-12-15T07:47:33.698Z,3.00
2017-12-15T07:49:00.766Z,3.02
2017-12-15T07:50:28.115Z,3.03
2017-12-15T07:51:55.452Z,3.03
2017-12-15T07:53:23.833Z,3.03
2017-12-15T07:54:50.965Z,3.03
2017-12-15T07:56:17.052Z,3.02
2017-12-15T07:57:44.211Z,3.03
2017-12-15T07:59:11.471Z,3.03
2017-12-15T08:00:38.596Z,3.02
2017-12-15T08:02:09.033Z,3.02
2017-12-15T08:03:33.081Z,3.04
2017-12-15T08:05:00.405Z,3.05
2017-12-15T08:06:27.666Z,3.07
2017-12-15T08:07:54.793Z,3.08
2017-12-15T08:09:22.624Z,3.05
2017-12-15T08:10:48.822Z,3.04
2017-12-15T08:12:15.860Z,3.04
2017-12-15T08:13:43.882Z,2.99
2017-12-15T08:15:10.997Z,2.96
2017-12-15T08:16:37.925Z,2.91
2017-12-15T08:18:04.264Z,2.92
2017-12-15T08:19:32.650Z,2.92
2017-12-15T08:20:59.910Z,2.92
2017-12-15T08:22:27.020Z,2.93
2017-12-15T08:23:54.442Z,2.94
2017-12-15T08:25:21.302Z,2.96
2017-12-15T08:26:48.739Z,2.98
2017-12-15T08:28:14.826Z,3.01
2017-12-15T08:29:42.131Z,3.03
2017-12-15T08:31:09.290Z,3.05
2017-12-15T08:32:36.394Z,3.07
2017-12-15T08:34:03.419Z,3.09
2017-12-15T08:35:30.762Z,3.11
2017-12-15T08:36:57.864Z,3.11
2017-12-15T08:38:25.180Z,3.11
2017-12-15T08:39:52.474Z,3.10
2017-12-15T08:41:19.699Z,3.11
2017-12-15T08:42:47.750Z,3.14
2017-12-15T08:44:14.132Z,3.16
2017-12-15T08:45:41.180Z,3.18
2017-12-15T08:47:09.207Z,3.20
2017-12-15T08:48:35.492Z,3.21
2017-12-15T08:50:02.724Z,3.22
2017-12-15T08:51:31.085Z,3.24
2017-12-15T08:52:58.343Z,3.25
2017-12-15T08:54:25.484Z,3.27
2017-12-15T08:55:52.801Z,3.29
2017-12-15T08:57:20.162Z,3.30
2017-12-15T08:58:46.403Z,3.33
2017-12-15T09:00:14.674Z,3.34
2017-12-15T09:01:40.902Z,3.36
2017-12-15T09:03:08.064Z,3.38
2017-12-15T09:04:35.254Z,3.39
2017-12-15T09:06:03.578Z,3.41
2017-12-15T09:07:29.687Z,3.43
2017-12-15T09:08:56.867Z,3.46
2017-12-15T09:10:24.145Z,3.48
2017-12-15T09:11:51.319Z,3.50
2017-12-15T09:13:18.533Z,3.51
2017-12-15T09:14:45.620Z,3.52
2017-12-15T09:16:12.997Z,3.52
2017-12-15T09:17:40.036Z,3.54
2017-12-15T09:19:07.053Z,3.54
2017-12-15T09:20:34.184Z,3.55
2017-12-15T09:22:02.378Z,3.54
2017-12-15T09:23:28.635Z,3.56
2017-12-15T09:24:56.697Z,3.58
2017-12-15T09:26:22.914Z,3.61
2017-12-15T09:27:50.275Z,3.63
2017-12-15T09:29:17.602Z,3.66
2017-12-15T09:30:44.735Z,3.67
2017-12-15T09:32:13.067Z,3.70
2017-12-15T09:33:40.053Z,3.74
2017-12-15T09:35:07.098Z,3.76
2017-12-15T09:36:33.424Z,3.79
2017-12-15T09:38:00.492Z,3.81
2017-12-15T09:39:27.899Z,3.82
2017-12-15T09:40:55.172Z,3.84
2017-12-15T09:42:22.426Z,3.86
2017-12-15T09:43:49.692Z,3.88
2017-12-15T09:45:16.650Z,3.90
2017-12-15T09:46:43.865Z,3.89
2017-12-15T09:48:11.908Z,3.89
2017-12-15T09:49:38.152Z,3.88
2017-12-15T09:51:05.233Z,3.89
2017-12-15T09:52:33.263Z,3.89
2017-12-15T09:54:00.339Z,3.90
2017-12-15T09:55:26.373Z,3.92
2017-12-15T09:56:53.487Z,3.96
2017-12-15T09:58:20.681Z,3.99
2017-12-15T09:59:49.143Z,4.03
2017-12-15T10:01:15.257Z,4.05
2017-12-15T10:02:43.334Z,4.07
2017-12-15T10:04:09.614Z,4.09
2017-12-15T10:05:37.787Z,4.11
2017-12-15T10:07:05.027Z,4.10
2017-12-15T10:08:32.415Z,4.12
2017-12-15T10:09:58.640Z,4.13
2017-12-15T10:11:25.932Z,4.13
2017-12-15T10:12:53.092Z,4.14
2017-12-15T10:14:21.332Z,4.14
2017-12-15T10:15:48.313Z,4.15
2017-12-15T10:17:14.599Z,4.14
2017-12-15T10:18:41.765Z,4.15
2017-12-15T10:20:09.901Z,4.16
2017-12-15T10:21:36.187Z,4.13
2017-12-15T10:23:04.464Z,4.13
2017-12-15T10:24:30.710Z,4.13
2017-12-15T10:25:58.897Z,4.12
2017-12-15T10:27:25.264Z,4.12
2017-12-15T10:28:53.366Z,4.12
2017-12-15T10:30:20.717Z,4.12
2017-12-15T10:31:46.855Z,4.12
2017-12-15T10:33:15.051Z,4.13
2017-12-15T10:34:42.147Z,4.14
2017-12-15T10:36:09.443Z,4.15
2017-12-15T10:37:36.724Z,4.16
2017-12-15T10:39:03.071Z,4.17
2017-12-15T10:40:31.366Z,4.17
2017-12-15T10:41:58.668Z,4.18
2017-12-15T10:43:24.748Z,4.18
2017-12-15T10:44:51.961Z,4.19
2017-12-15T10:46:19.002Z,4.20
2017-12-15T10:47:46.328Z,4.21
2017-12-15T10:49:14.623Z,4.22
2017-12-15T10:50:41.753Z,4.23
2017-12-15T10:52:07.928Z,4.23
2017-12-15T10:53:36.326Z,4.23
2017-12-15T10:55:03.563Z,4.23
2017-12-15T10:56:30.618Z,4.23
2017-12-15T10:57:56.947Z,4.22
2017-12-15T10:59:25.104Z,4.22
2017-12-15T11:00:51.197Z,4.22
2017-12-15T11:02:19.428Z,4.22
2017-12-15T11:03:46.511Z,4.23
2017-12-15T11:05:13.553Z,4.25
2017-12-15T11:06:39.877Z,4.27
2017-12-15T11:08:07.057Z,4.28
2017-12-15T11:09:34.356Z,4.30
2017-12-15T11:11:01.563Z,4.32
2017-12-15T11:12:28.884Z,4.34
2017-12-15T11:13:56.210Z,4.35
2017-12-15T11:15:23.373Z,4.37
2017-12-15T11:16:50.399Z,4.40
2017-12-15T11:18:17.534Z,4.41
2017-12-15T11:19:45.547Z,4.44
2017-12-15T11:21:12.739Z,4.46
2017-12-15T11:22:39.930Z,4.47
2017-12-15T11:24:05.946Z,4.50
2017-12-15T11:25:33.058Z,4.53
2017-12-15T11:27:01.545Z,4.55
2017-12-15T11:28:28.840Z,4.57
2017-12-15T11:29:55.165Z,4.59
2017-12-15T11:31:22.455Z,4.57
2017-12-15T11:32:49.577Z,4.59
2017-12-15T11:34:16.952Z,4.59
2017-12-15T11:35:44.302Z,4.59
2017-12-15T11:37:11.510Z,4.61
2017-12-15T11:38:38.708Z,4.60
2017-12-15T11:40:06.109Z,4.61
2017-12-15T11:41:33.430Z,4.63
2017-12-15T11:43:01.654Z,4.64
2017-12-15T11:44:28.043Z,4.67
2017-12-15T11:45:55.399Z,4.64
2017-12-15T11:47:22.705Z,4.64
2017-12-15T11:48:50.023Z,4.66
2017-12-15T11:50:17.230Z,4.67
2017-12-15T11:51:44.455Z,4.67
2017-12-15T11:53:11.746Z,4.69
2017-12-15T11:54:39.017Z,4.62
2017-12-15T11:56:05.887Z,4.63
2017-12-15T11:57:33.083Z,4.61
2017-12-15T11:59:01.256Z,4.56
2017-12-15T12:00:27.570Z,4.49
2017-12-15T12:01:54.738Z,4.49
2017-12-15T12:03:23.007Z,4.46
2017-12-15T12:04:49.276Z,4.45
2017-12-15T12:06:16.469Z,4.50
2017-12-15T12:07:43.755Z,4.52
2017-12-15T12:09:11.004Z,4.57
2017-12-15T12:10:38.098Z,4.62
2017-12-15T12:12:05.452Z,4.67
2017-12-15T12:13:33.673Z,4.63
2017-12-15T12:14:59.645Z,4.65
2017-12-15T12:16:27.931Z,4.69
2017-12-15T12:17:54.118Z,4.73
2017-12-15T12:19:21.323Z,4.69
2017-12-15T12:20:48.638Z,4.64
2017-12-15T12:22:15.835Z,4.66
2017-12-15T12:23:43.122Z,4.62
2017-12-15T12:25:11.380Z,4.67
2017-12-15T12:26:37.574Z,4.71
2017-12-15T12:28:04.720Z,4.76
2017-12-15T12:29:32.967Z,4.80
2017-12-15T12:30:59.139Z,4.84
2017-12-15T12:32:27.474Z,4.88
2017-12-15T12:33:54.791Z,4.91
2017-12-15T12:35:20.982Z,4.92
2017-12-15T12:36:48.122Z,4.92
2017-12-15T12:38:15.397Z,4.93
2017-12-15T12:39:43.561Z,4.94
2017-12-15T12:41:09.651Z,4.94
2017-12-15T12:42:36.955Z,4.95
2017-12-15T12:44:05.181Z,4.95
2017-12-15T12:45:31.489Z,4.96
2017-12-15T12:46:59.693Z,4.95
2017-12-15T12:48:26.124Z,4.95
2017-12-15T12:49:53.464Z,4.95
2017-12-15T12:51:20.722Z,4.95
2017-12-15T12:52:49.207Z,4.95
2017-12-15T12:54:16.325Z,4.96
2017-12-15T12:55:43.584Z,4.94
2017-12-15T12:57:09.905Z,4.92
2017-12-15T12:58:38.123Z,4.92
2017-12-15T13:00:05.477Z,4.92
2017-12-15T13:01:31.571Z,4.93
2017-12-15T13:02:58.882Z,4.93
2017-12-15T13:04:26.082Z,4.94
2017-12-15T13:05:53.376Z,4.96
2017-12-15T13:07:21.664Z,4.95
2017-12-15T13:08:49.095Z,4.95
2017-12-15T13:10:15.322Z,4.85
2017-12-15T13:11:42.560Z,4.82
2017-12-15T13:13:09.821Z,4.83
2017-12-15T13:14:37.866Z,4.82
2017-12-15T13:16:03.939Z,4.77
2017-12-15T13:17:32.224Z,4.69
2017-12-15T13:18:58.304Z,4.67
2017-12-15T13:20:26.680Z,4.66
2017-12-15T13:21:53.963Z,4.65
2017-12-15T13:23:21.246Z,4.60
2017-12-15T13:24:47.251Z,4.58
2017-12-15T13:26:14.223Z,4.57
2017-12-15T13:27:42.392Z,4.60
2017-12-15T13:29:09.779Z,4.62
2017-12-15T13:30:35.731Z,4.63
2017-12-15T13:32:04.043Z,4.66
2017-12-15T13:33:31.322Z,4.65
2017-12-15T13:34:57.543Z,4.65
2017-12-15T13:36:24.812Z,4.67
2017-12-15T13:37:52.067Z,4.68
2017-12-15T13:39:20.445Z,4.70
2017-12-15T13:40:47.688Z,4.72
2017-12-15T13:42:14.098Z,4.74
2017-12-15T13:43:42.335Z,4.75
2017-12-15T13:45:08.490Z,4.75
2017-12-15T13:46:35.813Z,4.77
2017-12-15T13:48:03.082Z,4.77
2017-12-15T13:49:30.382Z,4.79
2017-12-15T13:50:58.420Z,4.77
2017-12-15T13:52:24.829Z,4.77
2017-12-15T13:53:51.947Z,4.77
2017-12-15T13:55:19.212Z,4.77
2017-12-15T13:56:46.478Z,4.78
2017-12-15T13:58:13.796Z,4.79
2017-12-15T13:59:41.056Z,4.79
2017-12-15T14:01:08.303Z,4.78
2017-12-15T14:02:35.651Z,4.79
2017-12-15T14:04:03.903Z,4.80
2017-12-15T14:05:31.085Z,4.80
2017-12-15T14:06:58.362Z,4.80
2017-12-15T14:08:24.776Z,4.78
2017-12-15T14:09:51.970Z,4.77
2017-12-15T14:11:20.207Z,4.75
2017-12-15T14:12:47.427Z,4.75
2017-12-15T14:14:13.671Z,4.70
2017-12-15T14:15:40.756Z,4.66
2017-12-15T14:17:08.916Z,4.64
2017-12-15T14:18:36.197Z,4.61
2017-12-15T14:20:01.993Z,4.56
2017-12-15T14:21:30.060Z,4.58
2017-12-15T14:22:56.334Z,4.58
2017-12-15T14:24:23.576Z,4.56
2017-12-15T14:25:50.618Z,4.55
2017-12-15T14:27:17.850Z,4.53
2017-12-15T14:28:44.964Z,4.51
2017-12-15T14:30:13.369Z,4.48
2017-12-15T14:31:39.650Z,4.47
2017-12-15T14:33:06.784Z,4.48
2017-12-15T14:34:34.960Z,4.48
2017-12-15T14:36:02.096Z,4.49
2017-12-15T14:37:28.389Z,4.47
2017-12-15T14:38:56.735Z,4.42
2017-12-15T14:40:23.908Z,4.36
2017-12-15T14:41:50.261Z,4.31
2017-12-15T14:43:17.507Z,4.33
2017-12-15T14:44:44.717Z,4.35
2017-12-15T14:46:12.092Z,4.40
2017-12-15T14:47:39.236Z,4.43
2017-12-15T14:49:07.151Z,4.44
2017-12-15T14:50:33.509Z,4.48
2017-12-15T14:52:01.744Z,4.52
2017-12-15T14:53:28.962Z,4.54
2017-12-15T14:54:55.184Z,4.53
2017-12-15T14:56:22.294Z,4.53
2017-12-15T14:57:50.348Z,4.49
2017-12-15T14:59:16.542Z,4.51
2017-12-15T15:00:44.791Z,4.52
2017-12-15T15:02:11.163Z,4.48
2017-12-15T15:03:38.358Z,4.48
2017-12-15T15:05:06.592Z,4.50
2017-12-15T15:06:34.079Z,4.52
2017-12-15T15:08:01.119Z,4.53
2017-12-15T15:09:28.318Z,4.49
2017-12-15T15:10:55.730Z,4.50
2017-12-15T15:12:21.960Z,4.53
2017-12-15T15:13:49.172Z,4.55
2017-12-15T15:15:16.509Z,4.54
2017-12-15T15:16:43.619Z,4.53
2017-12-15T15:18:11.772Z,4.53
2017-12-15T15:19:37.917Z,4.55
2017-12-15T15:21:05.086Z,4.57
2017-12-15T15:22:33.396Z,4.55
2017-12-15T15:23:59.467Z,4.54
2017-12-15T15:25:26.574Z,4.54
2017-12-15T15:26:54.806Z,4.51
2017-12-15T15:28:21.331Z,4.52
2017-12-15T15:29:49.674Z,4.48
2017-12-15T15:31:16.869Z,4.46
2017-12-15T15:32:43.151Z,4.46
2017-12-15T15:34:10.410Z,4.48
2017-12-15T15:35:38.768Z,4.50
2017-12-15T15:37:04.965Z,4.52
2017-12-15T15:38:32.374Z,4.53
2017-12-15T15:40:00.761Z,4.55
2017-12-15T15:41:27.045Z,4.52
2017-12-15T15:42:54.471Z,4.48
2017-12-15T15:44:22.848Z,4.46
2017-12-15T15:45:49.981Z,4.46
2017-12-15T15:47:16.294Z,4.44
2017-12-15T15:48:44.662Z,4.45
2017-12-15T15:50:11.826Z,4.44
2017-12-15T15:51:39.072Z,4.45
2017-12-15T15:53:06.445Z,4.45
2017-12-15T15:54:32.738Z,4.43
2017-12-15T15:56:00.044Z,4.45
2017-12-15T15:57:28.247Z,4.43
2017-12-15T15:58:54.539Z,4.43
2017-12-15T16:00:21.805Z,4.38
2017-12-15T16:01:49.018Z,4.35
2017-12-15T16:03:17.146Z,4.32
2017-12-15T16:04:44.466Z,4.32
2017-12-15T16:06:10.646Z,4.34
2017-12-15T16:07:38.638Z,4.35
2017-12-15T16:09:06.236Z,4.37
2017-12-15T16:10:32.507Z,4.38
2017-12-15T16:11:59.662Z,4.33
2017-12-15T16:13:26.812Z,4.32
2017-12-15T16:14:55.187Z,4.31
2017-12-15T16:16:21.315Z,4.30
2017-12-15T16:17:49.604Z,4.29
2017-12-15T16:19:15.817Z,4.25
2017-12-15T16:20:44.166Z,4.24
2017-12-15T16:22:11.360Z,4.24
2017-12-15T16:23:38.610Z,4.23
2017-12-15T16:25:04.862Z,4.26
2017-12-15T16:26:33.210Z,4.25
2017-12-15T16:27:59.426Z,4.23
2017-12-15T16:29:27.772Z,4.24
2017-12-15T16:30:53.943Z,4.28
2017-12-15T16:32:21.272Z,4.28
2017-12-15T16:33:49.585Z,4.26
2017-12-15T16:35:15.776Z,4.27
2017-12-15T16:36:43.035Z,4.31
2017-12-15T16:38:10.141Z,4.33
2017-12-15T16:39:38.361Z,4.30
2017-12-15T16:41:04.553Z,4.24
2017-12-15T16:42:31.847Z,4.20
2017-12-15T16:44:00.154Z,4.22
2017-12-15T16:45:26.387Z,4.17
2017-12-15T16:46:53.466Z,4.15
2017-12-15T16:48:20.790Z,4.14
2017-12-15T16:49:48.019Z,4.16
2017-12-15T16:51:16.332Z,4.13
2017-12-15T16:52:43.365Z,4.11
2017-12-15T16:54:09.602Z,4.10
2017-12-15T16:55:37.797Z,4.10
2017-12-15T16:57:04.024Z,4.13
2017-12-15T16:58:31.440Z,4.12
2017-12-15T16:59:58.696Z,4.15
2017-12-15T17:01:26.107Z,4.13
2017-12-15T17:02:53.354Z,4.12
2017-12-15T17:04:20.619Z,4.11
2017-12-15T17:05:47.899Z,4.10
2017-12-15T17:07:15.115Z,4.10
2017-12-15T17:08:43.374Z,4.06
2017-12-15T17:10:09.669Z,4.08
2017-12-15T17:11:37.849Z,4.10
2017-12-15T17:13:04.014Z,4.11
2017-12-15T17:14:31.231Z,4.09
2017-12-15T17:15:58.582Z,4.10
2017-12-15T17:17:26.689Z,4.06
2017-12-15T17:18:53.000Z,4.08
2017-12-15T17:20:21.203Z,4.07
2017-12-15T17:21:48.542Z,4.07
2017-12-15T17:23:14.649Z,4.06
2017-12-15T17:24:41.905Z,4.05
2017-12-15T17:26:10.312Z,4.05
2017-12-15T17:27:36.363Z,4.04
2017-12-15T17:29:03.580Z,4.04
2017-12-15T17:30:30.804Z,4.03
2017-12-15T17:31:58.012Z,4.03
2017-12-15T17:33:25.228Z,4.03
2017-12-15T17:34:53.576Z,4.04
2017-12-15T17:36:20.837Z,4.03
2017-12-15T17:37:48.160Z,4.07
2017-12-15T17:39:14.408Z,4.05
2017-12-15T17:40:42.450Z,4.05
2017-12-15T17:42:08.664Z,4.06
2017-12-15T17:43:35.741Z,4.06
2017-12-15T17:45:02.893Z,4.09
2017-12-15T17:46:30.998Z,4.06
2017-12-15T17:47:58.096Z,4.07
2017-12-15T17:49:24.238Z,4.08
2017-12-15T17:50:51.554Z,4.11
2017-12-15T17:52:18.781Z,4.14
2017-12-15T17:53:46.987Z,4.12
2017-12-15T17:55:13.152Z,4.06
2017-12-15T17:56:40.441Z,4.03
2017-12-15T17:58:07.613Z,4.02
2017-12-15T17:59:34.997Z,4.04
2017-12-15T18:01:03.283Z,4.04
2017-12-15T18:02:29.367Z,4.02
2017-12-15T18:03:56.652Z,4.02
2017-12-15T18:05:23.943Z,4.00
2017-12-15T18:06:51.003Z,3.98
2017-12-15T18:08:18.343Z,3.95
2017-12-15T18:09:45.604Z,3.99
2017-12-15T18:11:12.779Z,4.00
2017-12-15T18:12:39.976Z,3.98
2017-12-15T18:14:07.132Z,3.98
2017-12-15T18:15:35.330Z,3.97
2017-12-15T18:17:01.398Z,3.97
2017-12-15T18:18:29.480Z,3.96
2017-12-15T18:19:56.625Z,3.94
2017-12-15T18:21:22.863Z,3.92
2017-12-15T18:22:50.064Z,3.96
2017-12-15T18:24:17.320Z,3.99
2017-12-15T18:25:45.673Z,3.97
2017-12-15T18:27:12.965Z,3.94
2017-12-15T18:28:39.974Z,3.96
2017-12-15T18:30:06.960Z,4.00
2017-12-15T18:31:33.004Z,4.04
2017-12-15T18:33:01.287Z,4.06
2017-12-15T18:34:27.398Z,4.07
2017-12-15T18:35:54.738Z,4.10
2017-12-15T18:37:21.897Z,4.09
2017-12-15T18:38:50.125Z,4.10
2017-12-15T18:40:16.359Z,4.11
2017-12-15T18:41:43.647Z,4.11
2017-12-15T18:43:11.853Z,4.12
2017-12-15T18:44:38.011Z,4.11
2017-12-15T18:46:05.319Z,4.11
2017-12-15T18:47:32.581Z,4.07
2017-12-15T18:48:59.888Z,4.04
2017-12-15T18:50:27.154Z,4.01
2017-12-15T18:51:55.334Z,3.97
2017-12-15T18:53:22.633Z,3.95
2017-12-15T18:54:49.793Z,3.93
2017-12-15T18:56:16.196Z,3.94
2017-12-15T18:57:44.281Z,3.96
2017-12-15T18:59:10.531Z,3.99
2017-12-15T19:00:37.640Z,4.03
2017-12-15T19:02:05.022Z,4.06
2017-12-15T19:03:33.381Z,4.09
2017-12-15T19:05:00.517Z,4.02
2017-12-15T19:06:26.700Z,4.03
2017-12-15T19:07:53.849Z,3.94
2017-12-15T19:09:21.038Z,3.89
2017-12-15T19:10:49.379Z,3.84
2017-12-15T19:12:15.560Z,3.81
2017-12-15T19:13:43.802Z,3.79
2017-12-15T19:15:10.081Z,3.77
2017-12-15T19:16:37.069Z,3.74
2017-12-15T19:18:04.164Z,3.71
2017-12-15T19:19:31.569Z,3.71
2017-12-15T19:20:59.866Z,3.69